Time;durP1;ratioP1;P1;durP2;ratioP2;P2;SDS_P1;SDS_P2;PMS_P1;PMS_P2;Temp;Humidity;BMP_temperature;BMP_pressure;BME280_temperature;BME280_humidity;BME280_pressure;Samples;Min_cycle;Max_cycle;Signal;HPM_P1;HPM_P2
2023/11/17 00:03:23;;;;;;;79.80;38.40;;;;;;;5.00;100.00;99876.31;223568;1267;223209;-85
2023/11/17 00:09:23;;;;;;;75.20;34.10;;;;;;;4.97;100.00;99878.83;223157;1267;140065;-85
2023/11/17 00:15:25;;;;;;;73.00;33.40;;;;;;;4.94;100.00;99881.23;223611;1267;138753;-84
2023/11/17 00:21:26;;;;;;;75.50;34.40;;;;;;;4.91;100.00;99883.20;223088;1267;140273;-85
2023/11/17 00:27:26;;;;;;;;;;;;;;;;;;;;;
2023/11/17 00:33:28;;;;;;;74.90;32.70;;;;;;;4.75;100.00;99886.54;223780;1266;138688;-85
2023/11/17 00:45:22;;;;;;;;;;;;;;;;;;;;;
2023/11/17 00:51:25;;;;;;;41.20;22.50;;;;;;;4.42;100.00;99885.11;223081;1269;140350;-85
2023/11/17 00:57:24;;;;;;;;;;;;;;;;;;;;;
2023/11/17 01:03:26;;;;;;;35.80;21.30;;;;;;;4.20;100.00;99889.98;223442;1269;390618;-85
2023/11/17 01:09:27;;;;;;;36.10;19.20;;;;;;;4.09;100.00;99894.95;223158;1267;140587;-85
2023/11/17 01:15:28;;;;;;;38.30;19.70;;;;;;;3.94;100.00;99901.21;223688;1268;138753;-85
2023/11/17 01:21:39;;;;;;;;;;;;;;;;;;;;;
2023/11/17 01:27:29;;;;;;;37.20;19.70;;;;;;;3.79;100.00;99900.45;223664;1268;138824;-84
2023/11/17 01:33:29;;;;;;;40.30;20.80;;;;;;;3.68;100.00;99903.19;223657;1268;138582;-85
2023/11/17 01:39:23;;;;;;;44.30;22.30;;;;;;;3.60;100.00;99901.36;223146;1267;140492;-85
2023/11/17 01:45:23;;;;;;;48.20;23.80;;;;;;;3.57;100.00;99907.88;223666;1266;138669;-85
2023/11/17 01:51:24;;;;;;;46.80;23.60;;;;;;;3.52;100.00;99902.55;223197;1267;140326;-85
2023/11/17 01:57:24;;;;;;;;;;;;;;;;;;;;;
2023/11/17 02:03:05;;;;;;;;;;;;;;;;;;;;;
2023/11/17 02:09:13;;;;;;;40.10;23.30;;;;;;;3.35;100.00;99901.13;223193;1270;140288;-85
2023/11/17 02:15:29;;;;;;;41.10;19.50;;;;;;;3.29;100.00;99897.38;223463;1267;139368;-85
2023/11/17 02:21:05;;;;;;;;;;;;;;;3.29;100.00;99901.95;223197;1267;140545;-85
2023/11/17 02:27:14;;;;;;;30.00;15.20;;;;;;;3.23;100.00;99910.47;223783;1266;124958;-85
2023/11/17 02:33:00;;;;;;;29.80;14.40;;;;;;;3.19;100.00;99921.38;223278;1268;138914;-85
2023/11/17 02:38:44;;;;;;;42.60;22.00;;;;;;;3.17;100.00;99927.67;223200;1268;139870;-85
2023/11/17 02:45:09;;;;;;;26.80;15.80;;;;;;;3.15;100.00;99936.63;223691;1268;138907;-85
2023/11/17 02:50:31;;;;;;;28.10;16.40;;;;;;;3.14;100.00;99943.35;223007;1268;140394;-85
2023/11/17 02:56:23;;;;;;;;;;;;;;;;;;;;;
2023/11/17 03:02:25;;;;;;;27.40;15.50;;;;;;;3.09;100.00;99949.71;223118;1266;140209;-85
2023/11/17 03:08:25;;;;;;;;;;;;;;;;;;;;;
2023/11/17 03:14:27;;;;;;;42.30;20.90;;;;;;;3.01;100.00;99945.56;223649;1266;139397;-85
2023/11/17 03:20:20;;;;;;;57.10;26.10;;;;;;;2.95;100.00;99940.64;223129;1269;140064;-85
2023/11/17 03:26:22;;;;;;;36.70;19.90;;;;;;;2.89;100.00;99949.89;223739;1267;138926;-85
2023/11/17 03:38:16;;;;;;;;;;;;;;;;;;;;;
2023/11/17 03:44:25;;;;;;;42.00;20.20;;;;;;;2.71;100.00;99951.85;223581;1267;139583;-85
2023/11/17 03:50:27;;;;;;;45.00;23.30;;;;;;;2.62;100.00;99954.32;223037;1269;140590;-85
2023/11/17 03:56:27;;;;;;;43.50;21.10;;;;;;;2.50;100.00;99957.32;223615;1270;139086;-84
2023/11/17 04:02:29;;;;;;;37.20;18.00;;;;;;;2.38;100.00;99968.91;223285;1267;139987;-85
2023/11/17 04:08:30;;;;;;;34.60;18.10;;;;;;;2.26;100.00;99969.63;223085;1271;140267;-85
2023/11/17 04:14:30;;;;;;;58.80;29.40;;;;;;;2.19;100.00;99969.93;223682;1269;138840;-85
2023/11/17 04:20:31;;;;;;;34.00;18.40;;;;;;;2.17;100.00;99973.25;223178;1267;139933;-85
2023/11/17 04:26:22;;;;;;;24.70;13.70;;;;;;;2.16;100.00;99972.91;223708;1267;138827;-85
2023/11/17 04:32:35;;;;;;;25.00;13.60;;;;;;;2.07;100.00;99976.23;223190;1267;140065;-85
2023/11/17 04:38:18;;;;;;;22.50;13.50;;;;;;;2.05;100.00;99986.70;223129;1268;140528;-85
2023/11/17 04:44:19;;;;;;;20.60;11.40;;;;;;;2.02;100.00;99995.11;223736;1266;138855;-85
2023/11/17 04:50:07;;;;;;;19.10;11.30;;;;;;;2.00;100.00;100001.84;223110;1268;140148;-85
2023/11/17 04:56:00;;;;;;;28.00;12.00;;;;;;;1.99;100.00;99999.32;223716;1267;138111;-85
2023/11/17 05:02:01;;;;;;;18.30;10.20;;;;;;;1.99;100.00;100000.40;223146;1267;139984;-85
2023/11/17 05:08:23;;;;;;;22.20;10.60;;;;;;;1.97;100.00;100008.27;223705;1267;139173;-85
2023/11/17 05:14:06;;;;;;;18.50;10.00;;;;;;;1.96;100.00;100008.69;223630;1267;139118;-84
2023/11/17 05:20:07;;;;;;;16.20;9.10;;;;;;;1.96;100.00;100011.91;223207;1268;140661;-83
2023/11/17 05:26:09;;;;;;;16.50;9.80;;;;;;;1.94;100.00;100017.68;223722;1267;139076;-83
2023/11/17 05:32:10;;;;;;;18.60;9.60;;;;;;;1.93;100.00;100013.59;223212;1267;140208;-83
2023/11/17 05:38:09;;;;;;;19.20;10.00;;;;;;;1.91;100.00;100012.75;223083;1267;140433;-83
2023/11/17 05:50:12;;;;;;;40.00;24.90;;;;;;;1.88;100.00;100029.05;223238;1267;140283;-83
2023/11/17 05:56:13;;;;;;;25.90;15.30;;;;;;;1.88;100.00;100034.86;223651;1267;139021;-83
2023/11/17 06:02:03;;;;;;;18.10;11.00;;;;;;;1.88;100.00;100038.98;223208;1267;140294;-83
2023/11/17 06:07:45;;;;;;;15.90;9.30;;;;;;;1.89;100.00;100042.74;223720;1267;139077;-83
2023/11/17 06:13:45;;;;;;;15.90;9.30;;;;;;;1.89;100.00;100048.80;223732;1270;139438;-84
2023/11/17 06:19:40;;;;;;;18.60;9.60;;;;;;;1.90;100.00;100051.85;223148;1267;141197;-84
2023/11/17 06:25:42;;;;;;;16.50;8.80;;;;;;;1.89;100.00;100055.38;223639;1267;139421;-83
2023/11/17 06:31:33;;;;;;;;;;;;;;;;;;;;;
2023/11/17 06:37:26;;;;;;;;;;;;;;;;;;;;;
2023/11/17 06:43:16;;;;;;;;;;;;;;;;;;;;;
2023/11/17 06:49:12;;;;;;;28.30;14.50;;;;;;;1.93;100.00;100082.59;223143;1267;140667;-83
2023/11/17 06:55:11;;;;;;;22.20;10.40;;;;;;;1.93;100.00;100093.37;223652;1267;139163;-82
2023/11/17 07:01:14;;;;;;;23.90;12.30;;;;;;;1.95;100.00;100098.23;223110;1267;140492;-84
2023/11/17 07:06:28;;;;;;;23.50;12.50;;;;;;;2.00;100.00;100096.86;223633;1267;139035;-84
2023/11/17 07:12:03;;;;;;;28.70;13.70;;;;;;;2.07;100.00;100105.96;223215;1266;139830;-85
2023/11/17 07:17:46;;;;;;;53.80;21.50;;;;;;;2.14;100.00;100114.20;223750;1266;139115;-83
2023/11/17 07:23:37;;;;;;;;;;;;;;;;;;;;;
2023/11/17 07:29:31;;;;;;;25.80;13.00;;;;;;;2.28;100.00;100125.73;223310;1266;140102;-84
2023/11/17 07:35:20;;;;;;;25.70;12.80;;;;;;;2.37;100.00;100130.95;223668;1267;139448;-84
2023/11/17 07:41:25;;;;;;;26.20;12.90;;;;;;;2.48;100.00;100130.10;223326;1267;140874;-85
2023/11/17 07:46:57;;;;;;;26.40;14.60;;;;;;;2.58;100.00;100128.49;223827;1267;104741;-86
2023/11/17 07:52:59;;;;;;;34.90;15.60;;;;;;;2.71;100.00;100134.17;223277;1266;140280;-85
2023/11/17 07:58:51;;;;;;;24.50;12.30;;;;;;;2.83;100.00;100137.66;223232;1267;140576;-84
2023/11/17 08:04:37;;;;;;;20.00;10.60;;;;;;;2.99;100.00;100138.38;223851;1266;104786;-85
2023/11/17 08:10:19;;;;;;;23.90;11.30;;;;;;;3.17;100.00;100138.20;223192;1267;140696;-86
2023/11/17 08:16:12;;;;;;;;;;;;;;;;;;;;;
2023/11/17 08:22:36;;;;;;;19.30;9.80;;;;;;;3.54;100.00;100149.15;223328;1266;139919;-88
2023/11/17 08:28:18;;;;;;;19.10;9.80;;;;;;;3.68;100.00;100159.65;223128;1266;140515;-91
2023/11/17 08:34:46;;;;;;;16.80;8.50;;;;;;;3.80;100.00;100162.39;223759;1266;138930;-88
2023/11/17 08:40:19;;;;;;;20.10;9.90;;;;;;;3.92;100.00;100162.02;223017;1267;140010;-88
2023/11/17 08:46:12;;;;;;;22.10;10.60;;;;;;;4.06;100.00;100178.05;223645;1267;141264;-88
2023/11/17 08:52:13;;;;;;;18.30;9.00;;;;;;;4.22;100.00;100185.95;223074;1266;140295;-87
2023/11/17 08:58:14;;;;;;;14.50;7.10;;;;;;;4.35;100.00;100191.83;223035;1266;140249;-88
2023/11/17 09:04:16;;;;;;;12.50;6.10;;;;;;;4.41;100.00;100208.13;223687;1266;138832;-89
2023/11/17 09:10:18;;;;;;;14.50;6.70;;;;;;;4.46;100.00;100220.59;223004;1266;140413;-87
2023/11/17 09:16:17;;;;;;;;;;;;;;;;;;;;;
2023/11/17 09:22:18;;;;;;;12.40;6.20;;;;;;;4.58;100.00;100233.13;223138;1268;139890;-89
2023/11/17 09:28:19;;;;;;;14.20;7.40;;;;;;;4.60;100.00;100239.65;223097;1266;140235;-88
2023/11/17 09:40:10;;;;;;;17.50;7.80;;;;;;;4.72;100.00;100243.45;219092;1267;140129;-87
2023/11/17 09:46:05;;;;;;;16.30;8.00;;;;;;;4.74;100.00;100243.28;223795;1266;139405;-88
2023/11/17 09:51:57;;;;;;;;;;;;;;;;;;;;;
2023/11/17 09:57:49;;;;;;;18.00;8.10;;;;;;;4.65;100.00;100242.14;223685;1266;139421;-88
2023/11/17 10:03:40;;;;;;;;;;;;;;;;;;;;;
2023/11/17 10:09:44;;;;;;;16.20;8.50;;;;;;;4.59;100.00;100244.75;223234;1266;140250;-87
2023/11/17 10:15:49;;;;;;;16.30;9.30;;;;;;;4.64;100.00;100248.02;223717;1266;138776;-88
2023/11/17 10:21:40;;;;;;;;;;;;;;;;;;;;;
2023/11/17 10:27:51;;;;;;;15.10;8.70;;;;;;;4.63;100.00;100256.95;223859;1267;139823;-88
2023/11/17 10:33:57;;;;;;;16.00;7.90;;;;;;;4.59;100.00;100258.63;223705;1266;139144;-86
2023/11/17 10:39:56;;;;;;;13.90;7.30;;;;;;;4.50;100.00;100250.92;223199;1266;140254;-86
2023/11/17 10:45:59;;;;;;;12.10;6.70;;;;;;;4.50;100.00;100249.91;223629;1267;139285;-86
2023/11/17 10:51:58;;;;;;;15.00;7.00;;;;;;;4.47;100.00;100250.38;223212;1266;140223;-86
2023/11/17 10:58:00;;;;;;;16.90;6.90;;;;;;;4.47;100.00;100253.78;223860;1267;138767;-86
2023/11/17 11:03:50;;;;;;;;;;;;;;;;;;;;;
2023/11/17 11:09:52;;;;;;;13.50;7.60;;;;;;;4.50;100.00;100258.95;223094;1266;140558;-86
2023/11/17 11:15:58;;;;;;;12.50;7.10;;;;;;;4.49;100.00;100264.05;223703;1266;139282;-87
2023/11/17 11:22:22;;;;;;;13.70;7.60;;;;;;;4.46;100.00;100268.88;223165;1267;140102;-86
2023/11/17 11:28:00;;;;;;;15.80;8.00;;;;;;;4.48;100.00;100263.94;223607;1266;139331;-86
2023/11/17 11:34:01;;;;;;;15.60;7.50;;;;;;;4.48;100.00;100268.53;223702;1266;221911;-86
2023/11/17 11:40:01;;;;;;;11.40;6.40;;;;;;;4.47;100.00;100273.64;223164;1266;140187;-86
2023/11/17 11:45:55;;;;;;;12.20;6.50;;;;;;;4.50;100.00;100279.36;223703;1267;139161;-87
2023/11/17 11:51:54;;;;;;;;;;;;;;;;;;;;;
2023/11/17 11:57:55;;;;;;;;;;;;;;;;;;;;;
2023/11/17 12:04:00;;;;;;;14.50;7.50;;;;;;;4.45;100.00;100286.67;223547;1268;139423;-86
2023/11/17 12:10:01;;;;;;;13.60;7.50;;;;;;;4.47;100.00;100289.69;223149;1267;140460;-84
2023/11/17 12:15:51;;;;;;;12.80;6.80;;;;;;;4.42;100.00;100293.57;223625;1267;139444;-84
2023/11/17 12:28:02;;;;;;;14.10;7.90;;;;;;;4.40;100.00;100290.13;223647;1267;139288;-87
2023/11/17 12:34:05;;;;;;;16.50;9.10;;;;;;;4.40;100.00;100289.81;223612;1267;138787;-86
2023/11/17 12:40:16;;;;;;;16.50;9.40;;;;;;;4.39;100.00;100296.44;223187;1266;140207;-85
2023/11/17 12:52:08;;;;;;;;;;;;;;;;;;;;;
2023/11/17 12:58:04;;;;;;;21.70;11.30;;;;;;;4.33;100.00;100296.92;223174;1267;139979;-84
2023/11/17 13:04:08;;;;;;;20.60;12.00;;;;;;;4.36;100.00;100297.94;223738;1267;138843;-86
2023/11/17 13:09:59;;;;;;;;;;;;;;;;;;;;;
2023/11/17 13:15:53;;;;;;;;;;;;;;;;;;;;;
2023/11/17 13:21:55;;;;;;;18.40;10.40;;;;;;;4.39;100.00;100304.92;223055;1267;140295;-87
2023/11/17 13:27:46;;;;;;;16.00;9.20;;;;;;;4.39;100.00;100306.40;223719;1267;138852;-87
2023/11/17 13:33:46;;;;;;;15.90;9.00;;;;;;;4.40;100.00;100301.58;223764;1268;138858;-86
2023/11/17 13:45:55;;;;;;;15.90;8.40;;;;;;;4.42;100.00;100305.86;223725;1267;139426;-87
2023/11/17 13:51:56;;;;;;;12.80;7.20;;;;;;;4.43;100.00;100318.74;223109;1266;139931;-87
2023/11/17 13:58:00;;;;;;;14.00;8.00;;;;;;;4.44;100.00;100324.06;223588;1267;138807;-88
2023/11/17 14:03:53;;;;;;;;;;;;;;;;;;;;;
2023/11/17 14:16:03;;;;;;;14.40;7.30;;;;;;;4.41;100.00;100332.84;223760;1267;139207;-87
2023/11/17 14:22:09;;;;;;;17.90;8.00;;;;;;;4.42;100.00;100329.98;223213;1267;141041;-88
2023/11/17 14:28:11;;;;;;;14.00;7.90;;;;;;;4.42;100.00;100338.00;223202;1266;140284;-88
2023/11/17 14:34:13;;;;;;;15.80;8.20;;;;;;;4.44;100.00;100343.05;223713;1266;138849;-88
2023/11/17 14:39:55;;;;;;;15.40;9.00;;;;;;;4.42;100.00;100342.92;223067;1268;140223;-88
2023/11/17 14:45:56;;;;;;;16.90;8.90;;;;;;;4.43;100.00;100354.08;223706;1267;138945;-89
2023/11/17 14:51:59;;;;;;;19.40;9.30;;;;;;;4.46;100.00;100359.46;223077;1268;140415;-89
2023/11/17 14:57:58;;;;;;;19.00;9.80;;;;;;;4.47;100.00;100364.65;223610;1268;138833;-90
2023/11/17 15:03:52;;;;;;;;;;;;;;;;;;;;;
2023/11/17 15:09:52;;;;;;;17.30;9.80;;;;;;;4.52;100.00;100369.77;223149;1268;140414;-89
2023/11/17 15:15:56;;;;;;;18.20;9.70;;;;;;;4.51;100.00;100374.05;223888;1267;139449;-89
2023/11/17 15:21:35;;;;;;;;;;;;;;;;;;;;;
2023/11/17 15:27:39;;;;;;;18.20;9.70;;;;;;;4.49;100.00;100387.52;223673;1268;138969;-91
2023/11/17 15:33:32;;;;;;;17.00;9.90;;;;;;;4.49;100.00;100391.65;223547;1267;138603;-90
2023/11/17 15:39:54;;;;;;;16.90;9.40;;;;;;;4.49;100.00;100393.22;222978;1268;140261;-90
2023/11/17 15:45:36;;;;;;;18.10;10.80;;;;;;;4.51;100.00;100403.58;223540;1267;138601;-87
2023/11/17 15:51:37;;;;;;;20.30;11.40;;;;;;;4.52;100.00;100402.95;223108;1267;140158;-86
2023/11/17 15:57:29;;;;;;;18.50;11.00;;;;;;;4.50;100.00;100410.16;223628;1268;138852;-87
2023/11/17 16:03:30;;;;;;;18.70;9.40;;;;;;;4.50;100.00;100414.36;223591;1267;139110;-88
2023/11/17 16:09:30;;;;;;;16.40;8.70;;;;;;;4.50;100.00;100417.79;223196;1268;140133;-88
2023/11/17 16:15:30;;;;;;;16.90;9.20;;;;;;;4.53;100.00;100421.86;223624;1266;139319;-86
2023/11/17 16:21:31;;;;;;;19.20;11.10;;;;;;;4.54;100.00;100429.11;222980;1267;139843;-86
2023/11/17 16:27:21;;;;;;;25.00;11.50;;;;;;;4.54;100.00;100432.71;223539;1269;139430;-86
2023/11/17 16:33:22;;;;;;;21.90;10.80;;;;;;;4.55;100.00;100441.70;223544;1267;138782;-88
2023/11/17 16:39:24;;;;;;;23.20;11.40;;;;;;;4.58;100.00;100445.55;222930;1267;140403;-88
2023/11/17 16:45:14;;;;;;;;;;;;;;;;;;;;;
2023/11/17 16:51:16;;;;;;;22.00;11.30;;;;;;;4.58;100.00;100448.50;222990;1267;140331;-89
2023/11/17 16:57:16;;;;;;;17.60;10.00;;;;;;;4.59;100.00;100454.67;223716;1266;138997;-90
2023/11/17 17:03:11;;;;;;;18.80;10.00;;;;;;;4.62;100.00;100458.36;223579;1267;242905;-89
2023/11/17 17:08:53;;;;;;;;;;;;;;;;;;;;;
2023/11/17 17:14:32;;;;;;;;;;;;;;;;;;;;;
2023/11/17 17:20:37;;;;;;;22.80;13.90;;;;;;;4.67;100.00;100466.45;223110;1267;140731;-86
2023/11/17 17:26:38;;;;;;;22.80;12.50;;;;;;;4.68;100.00;100467.69;223637;1270;139441;-89
2023/11/17 17:32:37;;;;;;;22.90;12.40;;;;;;;4.65;100.00;100476.56;223159;1268;140207;-89
2023/11/17 17:38:38;;;;;;;21.30;11.80;;;;;;;4.65;100.00;100478.02;223158;1267;140383;-90
2023/11/17 17:44:39;;;;;;;23.80;13.00;;;;;;;4.64;100.00;100479.95;223631;1267;139183;-90
2023/11/17 17:50:40;;;;;;;29.10;16.80;;;;;;;4.65;100.00;100480.42;223169;1270;140476;-90
2023/11/17 17:56:42;;;;;;;32.20;17.30;;;;;;;4.65;100.00;100484.95;223828;1268;139282;-91
2023/11/17 18:02:43;;;;;;;33.00;17.80;;;;;;;4.65;100.00;100483.94;223175;1269;140322;-92
2023/11/17 18:08:37;;;;;;;;;;;;;;;;;;;;;
2023/11/17 18:14:35;;;;;;;;;;;;;;;;;;;;;
2023/11/17 18:20:27;;;;;;;37.30;19.30;;;;;;;4.69;100.00;100496.61;223092;1266;140522;-91
2023/11/17 18:26:27;;;;;;;31.70;18.00;;;;;;;4.67;100.00;100500.98;223709;1267;138980;-92
2023/11/17 18:32:28;;;;;;;28.60;15.50;;;;;;;4.67;100.00;100503.73;223055;1266;140367;-91
2023/11/17 18:44:31;;;;;;;;;;;;;;;;;;;;;
2023/11/17 18:50:32;;;;;;;12.60;5.80;;;;;;;4.64;100.00;100516.53;223115;1266;140400;-89
2023/11/17 18:56:34;;;;;;;11.20;4.90;;;;;;;4.65;100.00;100514.16;223659;1270;139350;-91
2023/11/17 19:02:33;;;;;;;9.90;4.80;;;;;;;4.63;100.00;100516.89;223154;1267;140214;-90
2023/11/17 19:08:35;;;;;;;10.20;4.40;;;;;;;4.61;100.00;100520.51;223155;1270;140079;-90
2023/11/17 19:14:36;;;;;;;10.70;5.20;;;;;;;4.65;100.00;100520.15;223731;1268;139379;-91
2023/11/17 19:20:26;;;;;;;;;;;;;;;;;;;;;
2023/11/17 19:26:17;;;;;;;13.30;6.60;;;;;;;4.65;100.00;100528.42;223695;1266;138793;-90
2023/11/17 19:32:22;;;;;;;10.60;5.80;;;;;;;4.66;100.00;100527.61;223083;1270;139801;-93
2023/11/17 19:38:22;;;;;;;10.90;5.20;;;;;;;4.68;100.00;100524.64;223327;1268;139935;-90
2023/11/17 19:44:22;;;;;;;15.10;6.80;;;;;;;4.68;100.00;100536.48;223622;1267;139343;-91
2023/11/17 19:50:22;;;;;;;18.30;7.90;;;;;;;4.69;100.00;100526.23;223149;1267;140225;-92
2023/11/17 19:56:11;;;;;;;14.20;6.40;;;;;;;4.71;100.00;100523.88;223686;1266;138942;-89
2023/11/17 20:08:17;;;;;;;12.80;5.30;;;;;;;4.70;100.00;100526.03;223116;1267;141110;-88
2023/11/17 20:14:18;;;;;;;13.70;5.60;;;;;;;4.67;100.00;100540.71;223616;1267;138996;-88
2023/11/17 20:20:20;;;;;;;11.90;5.60;;;;;;;4.66;100.00;100541.38;223071;1267;140057;-88
2023/11/17 20:26:21;;;;;;;10.40;5.70;;;;;;;4.66;100.00;100546.83;223675;1268;139479;-89
2023/11/17 20:32:07;;;;;;;;;;;;;;;;;;;;;
2023/11/17 20:49:23;;;;;;;31.80;16.00;;;;;;;4.69;100.00;100560.90;223051;1266;140425;-88
2023/11/17 20:55:25;;;;;;;30.90;15.40;;;;;;;4.68;100.00;100562.48;223669;1267;139060;-87
2023/11/17 21:01:26;;;;;;;36.60;18.50;;;;;;;4.66;100.00;100570.59;223123;1270;140277;-86
2023/11/17 21:07:28;;;;;;;22.50;11.50;;;;;;;4.65;100.00;100579.27;223642;1267;139052;-88
2023/11/17 21:13:28;;;;;;;;;;;;;;;;;;;;;
2023/11/17 21:19:30;;;;;;;21.90;12.10;;;;;;;4.65;100.00;100590.25;223136;1267;140630;-88
2023/11/17 21:25:35;;;;;;;18.30;10.00;;;;;;;4.64;100.00;100594.74;223834;1267;139068;-87
2023/11/17 21:31:32;;;;;;;16.10;8.40;;;;;;;4.62;100.00;100610.55;223079;1267;140409;-87
2023/11/17 21:37:33;;;;;;;18.80;9.10;;;;;;;4.59;100.00;100621.80;219668;1267;5407711;-87
2023/11/17 21:43:25;;;;;;;;;;;;;;;;;;;;;
2023/11/17 21:49:16;;;;;;;17.10;7.50;;;;;;;4.55;100.00;100642.67;223075;1270;139867;-86
2023/11/17 21:55:18;;;;;;;11.80;6.40;;;;;;;4.55;100.00;100656.52;223770;1270;139768;-86
2023/11/17 22:01:20;;;;;;;15.80;7.00;;;;;;;4.56;100.00;100664.60;223175;1270;140335;-88
2023/11/17 22:07:30;;;;;;;18.30;8.80;;;;;;;4.58;100.00;100675.72;223770;1266;140172;-88
2023/11/17 22:13:29;;;;;;;;;;;;;;;;;;;;;
2023/11/17 22:19:31;;;;;;;20.80;10.90;;;;;;;4.60;100.00;100692.71;223127;1267;140786;-89
2023/11/17 22:31:32;;;;;;;20.90;9.40;;;;;;;4.61;100.00;100709.27;223088;1267;140201;-89
2023/11/17 22:37:33;;;;;;;18.80;8.40;;;;;;;4.59;100.00;100714.15;223691;1267;138996;-88
2023/11/17 22:49:37;;;;;;;16.20;8.50;;;;;;;4.54;100.00;100735.52;223164;1270;140233;-90
2023/11/17 22:55:36;;;;;;;18.10;7.60;;;;;;;4.53;100.00;100741.62;223604;1267;138955;-90
2023/11/17 23:01:29;;;;;;;;;;;;;;;;;;;;;
2023/11/17 23:07:36;;;;;;;;;;;;;;;;;;;;;
2023/11/17 23:13:30;;;;;;;;;;;;;;;;;;;;;
2023/11/17 23:25:37;;;;;;;17.00;8.90;;;;;;;4.37;100.00;100768.27;223765;1267;138772;-90
2023/11/17 23:31:37;;;;;;;22.50;11.00;;;;;;;4.35;100.00;100779.08;223225;1267;140590;-89
2023/11/17 23:37:38;;;;;;;22.00;12.00;;;;;;;4.35;100.00;100784.14;223650;1267;139005;-89
2023/11/17 23:43:39;;;;;;;24.40;11.00;;;;;;;4.33;100.00;100794.45;223662;1267;139766;-89
2023/11/17 23:49:41;;;;;;;24.20;12.20;;;;;;;4.31;100.00;100791.35;223124;1266;140236;-90
2023/11/17 23:55:40;;;;;;;25.70;12.60;;;;;;;4.30;100.00;100788.10;223764;1266;139006;-90
